LTBD

Çıldır Airport

Aydın, Turkey
TAF LTBD 220140Z 2203/2212 VRB02KT CAVOK
Issued Valid From Valid To
Sep-22 @ 01:40 UTC
(2 hours ago)
Sep-22 @ 03:00 UTC
(an hour ago)
Sep-22 @ 12:00 UTC
(in 8 hours)
to
TAF LTBD 220140Z 2203/2212 VRB02KT CAVOK
Issued Sep-22 @ 01:40 UTC
(2 hours ago)
Valid From Sep-22 @ 03:00 UTC
(an hour ago)
Valid To Sep-22 @ 12:00 UTC
(in 8 hours)
-